sensor_id;sensor_type;location;lat;lon;timestamp;pressure;altitude;pressure_sealevel;temperature;humidity
5954;BME280;3002;42.642;24.812;2022-10-31T00:00:58;96716.69;;;18.97;53.80
5954;BME280;3002;42.642;24.812;2022-10-31T00:03:24;96713.56;;;18.54;54.94
5954;BME280;3002;42.642;24.812;2022-10-31T00:05:51;96700.97;;;18.49;54.65
5954;BME280;3002;42.642;24.812;2022-10-31T00:08:18;96698.09;;;18.45;55.13
5954;BME280;3002;42.642;24.812;2022-10-31T00:10:44;96709.16;;;18.40;56.30
5954;BME280;3002;42.642;24.812;2022-10-31T00:13:11;96713.53;;;18.33;56.12
5954;BME280;3002;42.642;24.812;2022-10-31T00:15:38;96724.78;;;18.64;54.97
5954;BME280;3002;42.642;24.812;2022-10-31T00:18:05;96713.97;;;18.97;53.97
5954;BME280;3002;42.642;24.812;2022-10-31T00:20:31;96727.34;;;18.69;55.91
5954;BME280;3002;42.642;24.812;2022-10-31T00:22:58;96693.53;;;18.37;56.61
5954;BME280;3002;42.642;24.812;2022-10-31T00:25:25;96701.00;;;18.40;56.94
5954;BME280;3002;42.642;24.812;2022-10-31T00:27:50;96685.94;;;18.31;56.77
5954;BME280;3002;42.642;24.812;2022-10-31T00:30:17;96690.16;;;18.19;57.46
5954;BME280;3002;42.642;24.812;2022-10-31T00:32:42;96685.16;;;18.30;57.04
5954;BME280;3002;42.642;24.812;2022-10-31T00:35:08;96691.03;;;18.11;58.04
5954;BME280;3002;42.642;24.812;2022-10-31T00:37:33;96735.00;;;18.46;57.68
5954;BME280;3002;42.642;24.812;2022-10-31T00:39:59;96736.59;;;18.48;57.94
5954;BME280;3002;42.642;24.812;2022-10-31T00:42:24;96692.19;;;18.02;58.04
5954;BME280;3002;42.642;24.812;2022-10-31T00:44:50;96711.00;;;18.28;58.39
5954;BME280;3002;42.642;24.812;2022-10-31T00:47:15;96732.94;;;18.43;58.35
5954;BME280;3002;42.642;24.812;2022-10-31T00:49:41;96733.19;;;18.09;59.56
5954;BME280;3002;42.642;24.812;2022-10-31T00:52:06;96695.81;;;17.85;59.25
5954;BME280;3002;42.642;24.812;2022-10-31T00:54:32;96676.03;;;17.84;58.51
5954;BME280;3002;42.642;24.812;2022-10-31T00:56:57;96718.09;;;18.20;58.75
5954;BME280;3002;42.642;24.812;2022-10-31T00:59:23;96702.00;;;18.15;58.35
5954;BME280;3002;42.642;24.812;2022-10-31T01:01:48;96697.19;;;18.00;58.92
5954;BME280;3002;42.642;24.812;2022-10-31T01:04:14;96708.91;;;18.12;58.88
5954;BME280;3002;42.642;24.812;2022-10-31T01:06:40;96713.59;;;18.45;57.86
5954;BME280;3002;42.642;24.812;2022-10-31T01:09:06;96685.53;;;17.61;60.27
5954;BME280;3002;42.642;24.812;2022-10-31T01:11:31;96687.84;;;17.80;60.17
5954;BME280;3002;42.642;24.812;2022-10-31T01:13:57;96682.78;;;17.70;60.13
5954;BME280;3002;42.642;24.812;2022-10-31T01:16:24;96666.34;;;17.75;59.62
5954;BME280;3002;42.642;24.812;2022-10-31T01:18:50;96709.88;;;18.08;59.53
5954;BME280;3002;42.642;24.812;2022-10-31T01:21:18;96681.78;;;17.83;60.52
5954;BME280;3002;42.642;24.812;2022-10-31T01:23:45;96667.81;;;17.72;60.57
5954;BME280;3002;42.642;24.812;2022-10-31T01:26:14;96685.91;;;17.89;59.70
5954;BME280;3002;42.642;24.812;2022-10-31T01:28:45;96671.91;;;17.78;60.02
5954;BME280;3002;42.642;24.812;2022-10-31T01:31:11;96674.25;;;17.50;61.03
5954;BME280;3002;42.642;24.812;2022-10-31T01:33:37;96690.44;;;17.76;60.87
5954;BME280;3002;42.642;24.812;2022-10-31T01:36:33;96685.22;;;18.42;58.04
5954;BME280;3002;42.642;24.812;2022-10-31T01:39:02;96688.75;;;18.76;57.36
5954;BME280;3002;42.642;24.812;2022-10-31T01:41:30;96683.91;;;18.82;57.32
5954;BME280;3002;42.642;24.812;2022-10-31T01:44:02;96692.03;;;18.69;58.28
5954;BME280;3002;42.642;24.812;2022-10-31T01:46:45;96649.38;;;18.49;57.92
5954;BME280;3002;42.642;24.812;2022-10-31T01:49:17;96669.91;;;18.17;59.08
5954;BME280;3002;42.642;24.812;2022-10-31T01:51:48;96631.84;;;18.26;57.49
5954;BME280;3002;42.642;24.812;2022-10-31T01:54:18;96681.75;;;19.08;56.33
5954;BME280;3002;42.642;24.812;2022-10-31T01:56:50;96688.09;;;19.24;55.73
5954;BME280;3002;42.642;24.812;2022-10-31T01:59:20;96676.31;;;19.20;55.99
5954;BME280;3002;42.642;24.812;2022-10-31T02:01:47;96652.66;;;18.76;56.28
5954;BME280;3002;42.642;24.812;2022-10-31T02:04:15;96666.25;;;18.34;57.24
5954;BME280;3002;42.642;24.812;2022-10-31T02:06:54;96683.28;;;18.97;55.00
5954;BME280;3002;42.642;24.812;2022-10-31T02:09:21;96685.34;;;19.12;54.48
5954;BME280;3002;42.642;24.812;2022-10-31T02:11:51;96658.53;;;19.47;53.96
5954;BME280;3002;42.642;24.812;2022-10-31T02:14:18;96648.09;;;19.13;54.49
5954;BME280;3002;42.642;24.812;2022-10-31T02:16:43;96658.22;;;18.79;55.13
5954;BME280;3002;42.642;24.812;2022-10-31T02:19:13;96656.78;;;18.61;55.87
5954;BME280;3002;42.642;24.812;2022-10-31T02:21:45;96673.28;;;19.46;53.61
5954;BME280;3002;42.642;24.812;2022-10-31T02:29:54;96688.44;;;20.73;51.43
5954;BME280;3002;42.642;24.812;2022-10-31T02:35:25;96679.19;;;21.22;50.29
5954;BME280;3002;42.642;24.812;2022-10-31T02:41:20;96661.34;;;20.12;52.72
5954;BME280;3002;42.642;24.812;2022-10-31T02:44:20;96669.53;;;20.12;52.96
5954;BME280;3002;42.642;24.812;2022-10-31T02:46:55;96713.66;;;21.58;49.74
5954;BME280;3002;42.642;24.812;2022-10-31T02:49:24;96668.41;;;20.81;50.46
5954;BME280;3002;42.642;24.812;2022-10-31T02:51:52;96643.28;;;21.04;49.95
5954;BME280;3002;42.642;24.812;2022-10-31T02:54:22;96683.28;;;21.75;49.04
5954;BME280;3002;42.642;24.812;2022-10-31T02:56:49;96684.84;;;21.29;49.53
5954;BME280;3002;42.642;24.812;2022-10-31T02:59:16;96674.34;;;21.15;49.41
5954;BME280;3002;42.642;24.812;2022-10-31T03:09:41;96708.97;;;20.99;50.41
5954;BME280;3002;42.642;24.812;2022-10-31T03:15:25;96728.38;;;20.81;49.80
5954;BME280;3002;42.642;24.812;2022-10-31T03:18:12;96734.38;;;20.35;50.92
5954;BME280;3002;42.642;24.812;2022-10-31T03:21:04;96722.88;;;20.66;49.43
5954;BME280;3002;42.642;24.812;2022-10-31T03:23:32;96718.34;;;19.81;50.34
5954;BME280;3002;42.642;24.812;2022-10-31T03:26:00;96723.22;;;19.75;51.31
5954;BME280;3002;42.642;24.812;2022-10-31T03:28:31;96733.88;;;19.92;50.99
5954;BME280;3002;42.642;24.812;2022-10-31T03:31:02;96724.53;;;20.18;50.07
5954;BME280;3002;42.642;24.812;2022-10-31T03:33:32;96710.34;;;19.51;51.11
5954;BME280;3002;42.642;24.812;2022-10-31T03:36:01;96748.16;;;20.01;50.65
5954;BME280;3002;42.642;24.812;2022-10-31T03:38:28;96723.56;;;19.86;51.50
5954;BME280;3002;42.642;24.812;2022-10-31T03:40:55;96735.91;;;19.71;52.40
5954;BME280;3002;42.642;24.812;2022-10-31T03:43:27;96751.47;;;19.37;53.37
5954;BME280;3002;42.642;24.812;2022-10-31T03:45:54;96771.75;;;19.40;53.25
5954;BME280;3002;42.642;24.812;2022-10-31T03:48:20;96748.59;;;19.67;52.62
5954;BME280;3002;42.642;24.812;2022-10-31T03:51:01;96709.75;;;18.88;54.81
5954;BME280;3002;42.642;24.812;2022-10-31T03:53:34;96714.25;;;18.63;56.59
5954;BME280;3002;42.642;24.812;2022-10-31T03:56:18;96761.00;;;19.10;56.55
5954;BME280;3002;42.642;24.812;2022-10-31T03:58:57;96731.63;;;18.50;58.36
5954;BME280;3002;42.642;24.812;2022-10-31T04:01:25;96768.00;;;18.99;57.85
5954;BME280;3002;42.642;24.812;2022-10-31T04:03:53;96750.72;;;19.16;57.13
5954;BME280;3002;42.642;24.812;2022-10-31T04:06:22;96763.94;;;19.38;56.37
5954;BME280;3002;42.642;24.812;2022-10-31T04:08:56;96743.41;;;18.95;57.93
5954;BME280;3002;42.642;24.812;2022-10-31T04:11:25;96754.84;;;19.01;57.93
5954;BME280;3002;42.642;24.812;2022-10-31T04:13:53;96782.22;;;18.84;59.12
5954;BME280;3002;42.642;24.812;2022-10-31T04:16:21;96746.78;;;18.92;58.19
5954;BME280;3002;42.642;24.812;2022-10-31T04:18:47;96771.09;;;19.10;58.50
5954;BME280;3002;42.642;24.812;2022-10-31T04:21:12;96763.38;;;19.45;56.52
5954;BME280;3002;42.642;24.812;2022-10-31T04:23:38;96749.72;;;19.78;54.25
5954;BME280;3002;42.642;24.812;2022-10-31T04:26:03;96741.91;;;20.01;53.62
5954;BME280;3002;42.642;24.812;2022-10-31T04:28:29;96759.72;;;20.11;53.04
5954;BME280;3002;42.642;24.812;2022-10-31T04:30:54;96750.13;;;20.66;50.78
5954;BME280;3002;42.642;24.812;2022-10-31T04:33:20;96749.88;;;21.27;49.76
5954;BME280;3002;42.642;24.812;2022-10-31T04:35:46;96759.34;;;21.29;49.46
5954;BME280;3002;42.642;24.812;2022-10-31T04:38:12;96797.53;;;21.17;50.35
5954;BME280;3002;42.642;24.812;2022-10-31T04:40:37;96768.88;;;20.55;51.92
5954;BME280;3002;42.642;24.812;2022-10-31T04:43:03;96774.13;;;20.48;51.48
5954;BME280;3002;42.642;24.812;2022-10-31T04:45:28;96789.09;;;20.54;51.96
5954;BME280;3002;42.642;24.812;2022-10-31T04:47:54;96782.63;;;20.46;52.05
5954;BME280;3002;42.642;24.812;2022-10-31T04:50:19;96778.88;;;20.63;52.07
5954;BME280;3002;42.642;24.812;2022-10-31T04:52:45;96792.47;;;20.39;52.85
5954;BME280;3002;42.642;24.812;2022-10-31T04:55:12;96765.84;;;20.08;53.41
5954;BME280;3002;42.642;24.812;2022-10-31T04:57:46;96808.28;;;20.57;52.18
5954;BME280;3002;42.642;24.812;2022-10-31T05:00:15;96807.78;;;20.68;51.32
5954;BME280;3002;42.642;24.812;2022-10-31T05:02:47;96783.97;;;20.65;51.29
5954;BME280;3002;42.642;24.812;2022-10-31T05:05:14;96828.31;;;20.90;51.63
5954;BME280;3002;42.642;24.812;2022-10-31T05:07:45;96820.25;;;20.81;52.30
5954;BME280;3002;42.642;24.812;2022-10-31T05:10:12;96820.88;;;20.50;52.73
5954;BME280;3002;42.642;24.812;2022-10-31T05:12:45;96823.94;;;20.36;53.76
5954;BME280;3002;42.642;24.812;2022-10-31T05:15:12;96816.09;;;20.22;54.43
5954;BME280;3002;42.642;24.812;2022-10-31T05:17:37;96810.66;;;20.59;53.28
5954;BME280;3002;42.642;24.812;2022-10-31T05:20:03;96804.28;;;20.55;53.47
5954;BME280;3002;42.642;24.812;2022-10-31T05:22:28;96831.28;;;20.72;53.63
5954;BME280;3002;42.642;24.812;2022-10-31T05:24:54;96800.78;;;20.42;53.74
5954;BME280;3002;42.642;24.812;2022-10-31T05:27:19;96807.38;;;20.53;53.48
5954;BME280;3002;42.642;24.812;2022-10-31T05:29:46;96823.53;;;20.87;53.05
5954;BME280;3002;42.642;24.812;2022-10-31T05:32:11;96845.25;;;20.83;53.37
5954;BME280;3002;42.642;24.812;2022-10-31T05:34:37;96839.75;;;20.95;53.58
5954;BME280;3002;42.642;24.812;2022-10-31T05:37:02;96829.84;;;21.43;51.88
5954;BME280;3002;42.642;24.812;2022-10-31T05:39:28;96856.38;;;23.20;48.31
5954;BME280;3002;42.642;24.812;2022-10-31T05:41:53;96856.31;;;25.56;42.93
5954;BME280;3002;42.642;24.812;2022-10-31T05:44:19;96866.63;;;27.03;39.83
5954;BME280;3002;42.642;24.812;2022-10-31T05:46:46;96855.28;;;28.35;37.03
5954;BME280;3002;42.642;24.812;2022-10-31T05:49:11;96831.66;;;28.55;36.11
5954;BME280;3002;42.642;24.812;2022-10-31T05:51:37;96841.41;;;26.90;38.48
5954;BME280;3002;42.642;24.812;2022-10-31T05:54:02;96830.66;;;26.67;39.02
5954;BME280;3002;42.642;24.812;2022-10-31T05:56:28;96850.91;;;25.30;42.33
5954;BME280;3002;42.642;24.812;2022-10-31T05:58:53;96843.69;;;22.92;47.20
5954;BME280;3002;42.642;24.812;2022-10-31T06:01:19;96849.72;;;23.02;47.41
5954;BME280;3002;42.642;24.812;2022-10-31T06:03:44;96866.97;;;22.20;49.67
5954;BME280;3002;42.642;24.812;2022-10-31T06:06:10;96850.66;;;21.63;51.54
5954;BME280;3002;42.642;24.812;2022-10-31T06:08:36;96887.03;;;22.11;51.53
5954;BME280;3002;42.642;24.812;2022-10-31T06:11:01;96893.34;;;21.56;52.92
5954;BME280;3002;42.642;24.812;2022-10-31T06:13:27;96866.59;;;22.53;50.68
5954;BME280;3002;42.642;24.812;2022-10-31T06:15:52;96879.34;;;22.80;50.98
5954;BME280;3002;42.642;24.812;2022-10-31T06:18:18;96895.28;;;21.83;52.26
5954;BME280;3002;42.642;24.812;2022-10-31T06:20:43;96861.63;;;21.51;52.62
5954;BME280;3002;42.642;24.812;2022-10-31T06:23:09;96895.41;;;23.94;48.37
5954;BME280;3002;42.642;24.812;2022-10-31T06:25:36;96898.75;;;25.02;44.05
5954;BME280;3002;42.642;24.812;2022-10-31T06:28:09;96907.69;;;24.46;46.11
5954;BME280;3002;42.642;24.812;2022-10-31T06:30:37;96918.63;;;25.82;42.87
5954;BME280;3002;42.642;24.812;2022-10-31T06:33:04;96910.06;;;27.24;39.96
5954;BME280;3002;42.642;24.812;2022-10-31T06:35:29;96876.50;;;26.08;42.12
5954;BME280;3002;42.642;24.812;2022-10-31T06:37:55;96904.50;;;25.50;42.80
5954;BME280;3002;42.642;24.812;2022-10-31T06:40:21;96884.44;;;25.46;42.62
5954;BME280;3002;42.642;24.812;2022-10-31T06:42:46;96893.91;;;26.64;41.02
5954;BME280;3002;42.642;24.812;2022-10-31T06:45:12;96899.81;;;29.08;37.45
5954;BME280;3002;42.642;24.812;2022-10-31T06:47:38;96909.84;;;30.49;34.14
5954;BME280;3002;42.642;24.812;2022-10-31T06:50:03;96901.31;;;27.98;37.20
5954;BME280;3002;42.642;24.812;2022-10-31T06:52:29;96915.38;;;30.49;34.32
5954;BME280;3002;42.642;24.812;2022-10-31T06:54:54;96901.13;;;31.74;32.25
5954;BME280;3002;42.642;24.812;2022-10-31T06:57:20;96918.19;;;32.03;32.34
5954;BME280;3002;42.642;24.812;2022-10-31T06:59:45;96912.19;;;32.35;30.95
5954;BME280;3002;42.642;24.812;2022-10-31T07:02:12;96897.31;;;32.72;29.84
5954;BME280;3002;42.642;24.812;2022-10-31T07:04:37;96912.47;;;32.14;30.76
5954;BME280;3002;42.642;24.812;2022-10-31T07:07:03;96899.13;;;31.40;31.37
5954;BME280;3002;42.642;24.812;2022-10-31T07:09:28;96899.44;;;30.63;31.95
5954;BME280;3002;42.642;24.812;2022-10-31T07:11:57;96888.00;;;28.36;34.96
5954;BME280;3002;42.642;24.812;2022-10-31T07:14:22;96895.31;;;30.37;32.45
5954;BME280;3002;42.642;24.812;2022-10-31T07:16:51;96898.66;;;28.56;35.76
5954;BME280;3002;42.642;24.812;2022-10-31T07:19:17;96903.19;;;30.39;33.53
5954;BME280;3002;42.642;24.812;2022-10-31T07:21:43;96900.16;;;31.20;31.33
5954;BME280;3002;42.642;24.812;2022-10-31T07:24:08;96925.06;;;28.71;35.14
5954;BME280;3002;42.642;24.812;2022-10-31T07:26:35;96920.72;;;28.66;35.06
5954;BME280;3002;42.642;24.812;2022-10-31T07:29:01;96911.66;;;28.51;35.16
5954;BME280;3002;42.642;24.812;2022-10-31T07:31:27;96910.03;;;28.15;36.20
5954;BME280;3002;42.642;24.812;2022-10-31T07:33:53;96922.69;;;28.41;35.71
5954;BME280;3002;42.642;24.812;2022-10-31T07:36:18;96903.56;;;26.99;37.78
5954;BME280;3002;42.642;24.812;2022-10-31T07:38:45;96882.91;;;25.19;41.41
5954;BME280;3002;42.642;24.812;2022-10-31T07:41:10;96889.78;;;25.05;42.28
5954;BME280;3002;42.642;24.812;2022-10-31T07:43:35;96890.94;;;25.31;41.96
5954;BME280;3002;42.642;24.812;2022-10-31T07:46:01;96892.31;;;26.19;39.98
5954;BME280;3002;42.642;24.812;2022-10-31T07:48:26;96900.34;;;26.82;40.07
5954;BME280;3002;42.642;24.812;2022-10-31T07:50:52;96898.88;;;26.48;40.52
5954;BME280;3002;42.642;24.812;2022-10-31T07:53:17;96896.47;;;25.34;42.73
5954;BME280;3002;42.642;24.812;2022-10-31T07:55:43;96906.44;;;24.93;42.41
5954;BME280;3002;42.642;24.812;2022-10-31T07:58:11;96922.28;;;25.03;42.58
5954;BME280;3002;42.642;24.812;2022-10-31T08:00:39;96879.97;;;25.31;41.99
5954;BME280;3002;42.642;24.812;2022-10-31T08:03:10;96911.84;;;26.47;40.38
5954;BME280;3002;42.642;24.812;2022-10-31T08:05:36;96893.13;;;27.18;38.81
5954;BME280;3002;42.642;24.812;2022-10-31T08:08:03;96888.09;;;27.38;39.39
5954;BME280;3002;42.642;24.812;2022-10-31T08:10:30;96917.47;;;28.04;39.51
5954;BME280;3002;42.642;24.812;2022-10-31T08:13:05;96913.63;;;28.65;38.67
5954;BME280;3002;42.642;24.812;2022-10-31T08:15:31;96897.47;;;28.71;37.74
5954;BME280;3002;42.642;24.812;2022-10-31T08:17:58;96916.78;;;28.85;35.88
5954;BME280;3002;42.642;24.812;2022-10-31T08:20:23;96900.59;;;26.63;39.23
5954;BME280;3002;42.642;24.812;2022-10-31T08:23:12;96919.38;;;27.78;38.14
5954;BME280;3002;42.642;24.812;2022-10-31T08:25:41;96890.00;;;27.24;38.50
5954;BME280;3002;42.642;24.812;2022-10-31T08:28:12;96923.88;;;28.90;37.23
5954;BME280;3002;42.642;24.812;2022-10-31T08:30:40;96915.75;;;30.51;33.66
5954;BME280;3002;42.642;24.812;2022-10-31T08:33:10;96923.56;;;30.63;32.93
5954;BME280;3002;42.642;24.812;2022-10-31T08:35:36;96925.75;;;29.53;35.99
5954;BME280;3002;42.642;24.812;2022-10-31T08:38:02;96937.69;;;29.11;35.09
5954;BME280;3002;42.642;24.812;2022-10-31T08:40:31;96931.00;;;28.80;35.97
5954;BME280;3002;42.642;24.812;2022-10-31T08:43:06;96935.31;;;28.95;36.70
5954;BME280;3002;42.642;24.812;2022-10-31T08:45:33;96940.03;;;28.77;36.97
5954;BME280;3002;42.642;24.812;2022-10-31T08:48:01;96938.06;;;28.77;36.38
5954;BME280;3002;42.642;24.812;2022-10-31T08:50:29;96942.06;;;28.98;36.31
5954;BME280;3002;42.642;24.812;2022-10-31T08:53:03;96938.06;;;28.85;36.37
5954;BME280;3002;42.642;24.812;2022-10-31T08:55:36;96941.88;;;27.94;36.95
5954;BME280;3002;42.642;24.812;2022-10-31T08:58:04;96919.56;;;28.92;35.52
5954;BME280;3002;42.642;24.812;2022-10-31T09:00:30;96917.19;;;29.05;35.36
5954;BME280;3002;42.642;24.812;2022-10-31T09:03:00;96932.56;;;29.17;34.99
5954;BME280;3002;42.642;24.812;2022-10-31T09:05:26;96928.22;;;29.12;36.10
5954;BME280;3002;42.642;24.812;2022-10-31T09:07:55;96942.06;;;30.21;34.59
5954;BME280;3002;42.642;24.812;2022-10-31T09:10:22;96934.84;;;30.38;33.44
5954;BME280;3002;42.642;24.812;2022-10-31T09:13:01;96944.66;;;30.46;33.19
5954;BME280;3002;42.642;24.812;2022-10-31T09:15:27;96915.78;;;33.29;29.26
5954;BME280;3002;42.642;24.812;2022-10-31T09:18:09;96926.22;;;34.05;27.78
5954;BME280;3002;42.642;24.812;2022-10-31T09:20:36;96935.53;;;33.35;28.11
5954;BME280;3002;42.642;24.812;2022-10-31T09:23:08;96920.97;;;31.69;30.96
5954;BME280;3002;42.642;24.812;2022-10-31T09:25:38;96931.59;;;33.33;29.51
5954;BME280;3002;42.642;24.812;2022-10-31T09:28:05;96913.91;;;33.66;27.60
5954;BME280;3002;42.642;24.812;2022-10-31T09:30:33;96919.75;;;33.72;27.87
5954;BME280;3002;42.642;24.812;2022-10-31T09:33:02;96898.06;;;34.19;27.60
5954;BME280;3002;42.642;24.812;2022-10-31T09:35:29;96908.50;;;34.15;27.26
5954;BME280;3002;42.642;24.812;2022-10-31T09:37:56;96903.06;;;34.77;26.37
5954;BME280;3002;42.642;24.812;2022-10-31T09:43:14;96915.59;;;36.30;24.99
5954;BME280;3002;42.642;24.812;2022-10-31T09:46:18;96925.47;;;34.73;26.68
5954;BME280;3002;42.642;24.812;2022-10-31T09:57:32;96910.34;;;32.52;28.92
5954;BME280;3002;42.642;24.812;2022-10-31T09:59:59;96910.19;;;33.10;28.05
5954;BME280;3002;42.642;24.812;2022-10-31T10:03:02;96908.72;;;34.04;26.62
5954;BME280;3002;42.642;24.812;2022-10-31T10:05:32;96904.16;;;34.30;26.83
5954;BME280;3002;42.642;24.812;2022-10-31T10:08:21;96908.13;;;33.57;26.81
5954;BME280;3002;42.642;24.812;2022-10-31T10:10:51;96877.53;;;34.29;26.38
5954;BME280;3002;42.642;24.812;2022-10-31T10:13:36;96900.59;;;34.30;26.32
5954;BME280;3002;42.642;24.812;2022-10-31T10:16:25;96897.41;;;34.64;26.03
5954;BME280;3002;42.642;24.812;2022-10-31T10:22:08;96855.81;;;32.38;28.28
5954;BME280;3002;42.642;24.812;2022-10-31T10:28:06;96884.16;;;34.19;26.00
5954;BME280;3002;42.642;24.812;2022-10-31T10:33:31;96877.34;;;28.95;32.65
5954;BME280;3002;42.642;24.812;2022-10-31T10:36:18;96874.44;;;29.52;31.85
5954;BME280;3002;42.642;24.812;2022-10-31T10:38:52;96880.69;;;31.27;29.97
5954;BME280;3002;42.642;24.812;2022-10-31T10:41:24;96879.38;;;32.77;26.91
5954;BME280;3002;42.642;24.812;2022-10-31T10:43:52;96865.19;;;33.58;26.96
5954;BME280;3002;42.642;24.812;2022-10-31T10:58:04;96882.25;;;38.18;22.26
5954;BME280;3002;42.642;24.812;2022-10-31T11:00:46;96880.78;;;37.52;22.36
5954;BME280;3002;42.642;24.812;2022-10-31T11:03:14;96872.22;;;37.77;22.57
5954;BME280;3002;42.642;24.812;2022-10-31T11:08:34;96868.53;;;37.58;23.09
5954;BME280;3002;42.642;24.812;2022-10-31T11:11:19;96855.53;;;37.42;22.67
5954;BME280;3002;42.642;24.812;2022-10-31T11:13:50;96860.81;;;35.82;23.78
5954;BME280;3002;42.642;24.812;2022-10-31T11:16:36;96863.84;;;37.33;23.40
5954;BME280;3002;42.642;24.812;2022-10-31T11:19:23;96856.91;;;36.56;23.96
5954;BME280;3002;42.642;24.812;2022-10-31T11:21:52;96851.16;;;37.63;22.17
5954;BME280;3002;42.642;24.812;2022-10-31T11:24:19;96871.81;;;37.57;22.48
5954;BME280;3002;42.642;24.812;2022-10-31T11:26:47;96850.09;;;38.72;21.46
5954;BME280;3002;42.642;24.812;2022-10-31T11:29:25;96847.31;;;33.75;26.19
5954;BME280;3002;42.642;24.812;2022-10-31T11:31:53;96836.69;;;35.04;25.11
5954;BME280;3002;42.642;24.812;2022-10-31T11:34:37;96855.81;;;37.22;23.16
5954;BME280;3002;42.642;24.812;2022-10-31T11:37:21;96860.72;;;39.05;21.45
5954;BME280;3002;42.642;24.812;2022-10-31T11:39:57;96856.22;;;38.40;21.42
5954;BME280;3002;42.642;24.812;2022-10-31T11:42:27;96857.91;;;36.62;23.28
5954;BME280;3002;42.642;24.812;2022-10-31T11:44:55;96860.97;;;37.37;22.47
5954;BME280;3002;42.642;24.812;2022-10-31T11:47:28;96852.31;;;39.05;21.32
5954;BME280;3002;42.642;24.812;2022-10-31T11:49:56;96843.97;;;33.84;25.47
5954;BME280;3002;42.642;24.812;2022-10-31T11:52:25;96822.06;;;36.35;22.89
5954;BME280;3002;42.642;24.812;2022-10-31T11:57:46;96844.94;;;37.37;22.11
5954;BME280;3002;42.642;24.812;2022-10-31T12:03:15;96846.19;;;36.03;23.18
5954;BME280;3002;42.642;24.812;2022-10-31T12:05:41;96833.84;;;37.34;22.21
5954;BME280;3002;42.642;24.812;2022-10-31T12:08:11;96847.25;;;37.17;22.31
5954;BME280;3002;42.642;24.812;2022-10-31T12:11:02;96825.34;;;33.81;24.77
5954;BME280;3002;42.642;24.812;2022-10-31T12:25:07;96829.81;;;36.05;23.58
5954;BME280;3002;42.642;24.812;2022-10-31T12:30:40;96861.56;;;35.57;23.29
5954;BME280;3002;42.642;24.812;2022-10-31T12:33:36;96861.81;;;36.64;22.77
5954;BME280;3002;42.642;24.812;2022-10-31T12:55:40;96856.59;;;29.68;29.63
5954;BME280;3002;42.642;24.812;2022-10-31T13:03:39;96854.75;;;30.65;28.44
5954;BME280;3002;42.642;24.812;2022-10-31T13:06:16;96857.91;;;31.42;27.90
5954;BME280;3002;42.642;24.812;2022-10-31T13:09:10;96862.88;;;31.89;27.83
5954;BME280;3002;42.642;24.812;2022-10-31T13:11:55;96875.97;;;30.82;28.42
5954;BME280;3002;42.642;24.812;2022-10-31T13:14:26;96844.22;;;29.90;30.40
5954;BME280;3002;42.642;24.812;2022-10-31T13:16:55;96886.72;;;29.33;30.93
5954;BME280;3002;42.642;24.812;2022-10-31T13:19:31;96888.94;;;29.74;31.14
5954;BME280;3002;42.642;24.812;2022-10-31T13:22:07;96879.97;;;29.42;30.95
5954;BME280;3002;42.642;24.812;2022-10-31T13:25:03;96876.13;;;29.14;31.82
5954;BME280;3002;42.642;24.812;2022-10-31T13:27:59;96867.34;;;29.41;30.73
5954;BME280;3002;42.642;24.812;2022-10-31T13:30:32;96874.97;;;30.03;30.54
5954;BME280;3002;42.642;24.812;2022-10-31T13:33:17;96873.31;;;30.72;29.96
5954;BME280;3002;42.642;24.812;2022-10-31T13:38:58;96877.66;;;31.10;29.39
5954;BME280;3002;42.642;24.812;2022-10-31T13:44:23;96870.78;;;31.90;28.38
5954;BME280;3002;42.642;24.812;2022-10-31T13:46:50;96846.97;;;32.94;27.73
5954;BME280;3002;42.642;24.812;2022-10-31T13:54:44;96868.19;;;31.46;29.00
5954;BME280;3002;42.642;24.812;2022-10-31T13:59:58;96877.50;;;29.72;31.50
5954;BME280;3002;42.642;24.812;2022-10-31T14:02:27;96856.91;;;31.29;29.13
5954;BME280;3002;42.642;24.812;2022-10-31T14:05:34;96869.13;;;30.94;29.77
5954;BME280;3002;42.642;24.812;2022-10-31T14:08:02;96876.19;;;32.28;28.55
5954;BME280;3002;42.642;24.812;2022-10-31T14:10:38;96870.31;;;31.34;29.28
5954;BME280;3002;42.642;24.812;2022-10-31T14:13:21;96867.09;;;30.98;30.01
5954;BME280;3002;42.642;24.812;2022-10-31T14:15:59;96872.53;;;30.71;30.31
5954;BME280;3002;42.642;24.812;2022-10-31T14:18:41;96846.06;;;30.18;30.82
5954;BME280;3002;42.642;24.812;2022-10-31T14:21:27;96860.19;;;30.31;31.19
5954;BME280;3002;42.642;24.812;2022-10-31T14:24:01;96868.09;;;29.48;31.99
5954;BME280;3002;42.642;24.812;2022-10-31T14:26:32;96864.66;;;29.23;32.53
5954;BME280;3002;42.642;24.812;2022-10-31T14:29:00;96868.47;;;29.65;31.38
5954;BME280;3002;42.642;24.812;2022-10-31T14:31:37;96893.47;;;30.09;31.19
5954;BME280;3002;42.642;24.812;2022-10-31T14:36:46;96883.69;;;29.98;31.04
5954;BME280;3002;42.642;24.812;2022-10-31T14:39:25;96858.00;;;29.10;32.64
5954;BME280;3002;42.642;24.812;2022-10-31T14:45:10;96883.66;;;28.99;32.94
5954;BME280;3002;42.642;24.812;2022-10-31T14:52:57;96898.00;;;27.57;35.01
5954;BME280;3002;42.642;24.812;2022-10-31T14:55:27;96867.41;;;26.01;37.22
5954;BME280;3002;42.642;24.812;2022-10-31T15:00:22;96878.06;;;26.47;36.76
5954;BME280;3002;42.642;24.812;2022-10-31T15:03:14;96891.28;;;26.34;37.18
5954;BME280;3002;42.642;24.812;2022-10-31T15:05:49;96864.81;;;26.59;36.75
5954;BME280;3002;42.642;24.812;2022-10-31T15:08:29;96897.34;;;27.05;36.45
5954;BME280;3002;42.642;24.812;2022-10-31T15:10:56;96896.09;;;26.40;37.46
5954;BME280;3002;42.642;24.812;2022-10-31T15:13:21;96888.50;;;26.30;37.27
5954;BME280;3002;42.642;24.812;2022-10-31T15:15:51;96895.56;;;26.28;37.94
5954;BME280;3002;42.642;24.812;2022-10-31T15:18:21;96918.97;;;25.77;38.51
5954;BME280;3002;42.642;24.812;2022-10-31T15:20:47;96921.53;;;26.34;37.44
5954;BME280;3002;42.642;24.812;2022-10-31T15:23:29;96888.09;;;26.28;37.46
5954;BME280;3002;42.642;24.812;2022-10-31T15:26:01;96923.88;;;25.95;39.11
5954;BME280;3002;42.642;24.812;2022-10-31T15:28:28;96912.38;;;25.52;39.76
5954;BME280;3002;42.642;24.812;2022-10-31T15:30:56;96906.91;;;25.85;38.94
5954;BME280;3002;42.642;24.812;2022-10-31T15:33:26;96910.78;;;25.81;39.36
5954;BME280;3002;42.642;24.812;2022-10-31T15:36:01;96893.75;;;25.72;39.12
5954;BME280;3002;42.642;24.812;2022-10-31T15:38:28;96905.44;;;25.61;39.30